sensor_id;sensor_type;location;lat;lon;timestamp;temperature;humidity
30150;DHT22;16962;48.646;9.026;2023-09-08T00:02:47;14.20;99.90
30150;DHT22;16962;48.646;9.026;2023-09-08T00:05:46;14.20;99.90
30150;DHT22;16962;48.646;9.026;2023-09-08T00:09:07;14.40;99.90
30150;DHT22;16962;48.646;9.026;2023-09-08T00:11:59;14.40;99.90
30150;DHT22;16962;48.646;9.026;2023-09-08T00:14:50;14.30;99.90
30150;DHT22;16962;48.646;9.026;2023-09-08T00:17:37;14.20;99.90
30150;DHT22;16962;48.646;9.026;2023-09-08T00:20:29;14.10;99.90
30150;DHT22;16962;48.646;9.026;2023-09-08T00:23:16;14.00;99.90
30150;DHT22;16962;48.646;9.026;2023-09-08T00:26:06;14.00;99.90
30150;DHT22;16962;48.646;9.026;2023-09-08T00:28:57;14.00;99.90
30150;DHT22;16962;48.646;9.026;2023-09-08T00:31:45;14.00;99.90
30150;DHT22;16962;48.646;9.026;2023-09-08T00:34:32;13.90;99.90
30150;DHT22;16962;48.646;9.026;2023-09-08T00:37:20;13.90;99.90
30150;DHT22;16962;48.646;9.026;2023-09-08T00:40:07;13.90;99.90
30150;DHT22;16962;48.646;9.026;2023-09-08T00:42:56;14.00;99.90
30150;DHT22;16962;48.646;9.026;2023-09-08T00:45:43;14.00;99.90
30150;DHT22;16962;48.646;9.026;2023-09-08T00:48:35;14.00;99.90
30150;DHT22;16962;48.646;9.026;2023-09-08T00:51:27;14.00;99.90
30150;DHT22;16962;48.646;9.026;2023-09-08T00:54:19;14.00;99.90
30150;DHT22;16962;48.646;9.026;2023-09-08T00:57:09;14.00;99.90
30150;DHT22;16962;48.646;9.026;2023-09-08T01:00:00;13.90;99.90
30150;DHT22;16962;48.646;9.026;2023-09-08T01:02:53;13.90;99.90
30150;DHT22;16962;48.646;9.026;2023-09-08T01:05:41;13.90;99.90
30150;DHT22;16962;48.646;9.026;2023-09-08T01:08:34;13.80;99.90
30150;DHT22;16962;48.646;9.026;2023-09-08T01:11:23;13.90;99.90
30150;DHT22;16962;48.646;9.026;2023-09-08T01:14:12;13.80;99.90
30150;DHT22;16962;48.646;9.026;2023-09-08T01:17:09;13.90;99.90
30150;DHT22;16962;48.646;9.026;2023-09-08T01:20:20;13.80;99.90
30150;DHT22;16962;48.646;9.026;2023-09-08T01:23:27;13.80;99.90
30150;DHT22;16962;48.646;9.026;2023-09-08T01:26:20;13.70;99.90
30150;DHT22;16962;48.646;9.026;2023-09-08T01:29:10;13.70;99.90
30150;DHT22;16962;48.646;9.026;2023-09-08T01:31:58;13.60;99.90
30150;DHT22;16962;48.646;9.026;2023-09-08T01:34:52;13.70;99.90
30150;DHT22;16962;48.646;9.026;2023-09-08T01:37:48;13.70;99.90
30150;DHT22;16962;48.646;9.026;2023-09-08T01:40:36;13.60;99.90
30150;DHT22;16962;48.646;9.026;2023-09-08T01:43:24;13.50;99.90
30150;DHT22;16962;48.646;9.026;2023-09-08T01:46:11;13.50;99.90
30150;DHT22;16962;48.646;9.026;2023-09-08T01:49:05;13.40;99.90
30150;DHT22;16962;48.646;9.026;2023-09-08T01:51:55;13.40;99.90
30150;DHT22;16962;48.646;9.026;2023-09-08T01:54:45;13.40;99.90
30150;DHT22;16962;48.646;9.026;2023-09-08T01:57:38;13.40;99.90
30150;DHT22;16962;48.646;9.026;2023-09-08T02:00:26;13.60;99.90
30150;DHT22;16962;48.646;9.026;2023-09-08T02:03:13;13.50;99.90
30150;DHT22;16962;48.646;9.026;2023-09-08T02:06:01;13.40;99.90
30150;DHT22;16962;48.646;9.026;2023-09-08T02:08:50;13.40;99.90
30150;DHT22;16962;48.646;9.026;2023-09-08T02:11:40;13.30;99.90
30150;DHT22;16962;48.646;9.026;2023-09-08T02:14:29;13.20;99.90
30150;DHT22;16962;48.646;9.026;2023-09-08T02:17:19;13.20;99.90
30150;DHT22;16962;48.646;9.026;2023-09-08T02:20:07;13.10;99.90
30150;DHT22;16962;48.646;9.026;2023-09-08T02:22:56;13.10;99.90
30150;DHT22;16962;48.646;9.026;2023-09-08T02:25:44;13.10;99.90
30150;DHT22;16962;48.646;9.026;2023-09-08T02:28:38;13.00;99.90
30150;DHT22;16962;48.646;9.026;2023-09-08T02:31:31;13.00;99.90
30150;DHT22;16962;48.646;9.026;2023-09-08T02:34:18;13.00;99.90
30150;DHT22;16962;48.646;9.026;2023-09-08T02:37:06;13.00;99.90
30150;DHT22;16962;48.646;9.026;2023-09-08T02:40:04;13.00;99.90
30150;DHT22;16962;48.646;9.026;2023-09-08T02:42:53;12.90;99.90
30150;DHT22;16962;48.646;9.026;2023-09-08T02:45:47;12.80;99.90
30150;DHT22;16962;48.646;9.026;2023-09-08T02:48:36;12.90;99.90
30150;DHT22;16962;48.646;9.026;2023-09-08T02:51:26;12.90;99.90
30150;DHT22;16962;48.646;9.026;2023-09-08T02:54:19;12.90;99.90
30150;DHT22;16962;48.646;9.026;2023-09-08T02:57:11;12.90;99.90
30150;DHT22;16962;48.646;9.026;2023-09-08T02:59:58;12.80;99.90
30150;DHT22;16962;48.646;9.026;2023-09-08T03:02:48;12.80;99.90
30150;DHT22;16962;48.646;9.026;2023-09-08T03:05:37;12.70;99.90
30150;DHT22;16962;48.646;9.026;2023-09-08T03:08:25;12.70;99.90
30150;DHT22;16962;48.646;9.026;2023-09-08T03:11:26;12.70;99.90
30150;DHT22;16962;48.646;9.026;2023-09-08T03:14:14;12.60;99.90
30150;DHT22;16962;48.646;9.026;2023-09-08T03:17:04;12.60;99.90
30150;DHT22;16962;48.646;9.026;2023-09-08T03:19:53;12.60;99.90
30150;DHT22;16962;48.646;9.026;2023-09-08T03:22:41;12.60;99.90
30150;DHT22;16962;48.646;9.026;2023-09-08T03:25:28;12.60;99.90
30150;DHT22;16962;48.646;9.026;2023-09-08T03:28:18;12.50;99.90
30150;DHT22;16962;48.646;9.026;2023-09-08T03:31:06;12.50;99.90
30150;DHT22;16962;48.646;9.026;2023-09-08T03:33:54;12.40;99.90
30150;DHT22;16962;48.646;9.026;2023-09-08T03:36:49;12.40;99.90
30150;DHT22;16962;48.646;9.026;2023-09-08T03:39:38;12.40;99.90
30150;DHT22;16962;48.646;9.026;2023-09-08T03:42:30;12.40;99.90
30150;DHT22;16962;48.646;9.026;2023-09-08T03:45:36;12.40;99.90
30150;DHT22;16962;48.646;9.026;2023-09-08T03:48:51;12.40;99.90
30150;DHT22;16962;48.646;9.026;2023-09-08T03:51:48;12.30;99.90
30150;DHT22;16962;48.646;9.026;2023-09-08T03:54:38;12.30;99.90
30150;DHT22;16962;48.646;9.026;2023-09-08T03:57:30;12.20;99.90
30150;DHT22;16962;48.646;9.026;2023-09-08T04:00:20;12.20;99.90
30150;DHT22;16962;48.646;9.026;2023-09-08T04:03:12;12.20;99.90
30150;DHT22;16962;48.646;9.026;2023-09-08T04:06:05;12.20;99.90
30150;DHT22;16962;48.646;9.026;2023-09-08T04:08:53;12.20;99.90
30150;DHT22;16962;48.646;9.026;2023-09-08T04:11:42;12.30;99.90
30150;DHT22;16962;48.646;9.026;2023-09-08T04:14:30;12.30;99.90
30150;DHT22;16962;48.646;9.026;2023-09-08T04:17:24;12.30;99.90
30150;DHT22;16962;48.646;9.026;2023-09-08T04:20:11;12.30;99.90
30150;DHT22;16962;48.646;9.026;2023-09-08T04:23:02;12.20;99.90
30150;DHT22;16962;48.646;9.026;2023-09-08T04:25:54;12.20;99.90
30150;DHT22;16962;48.646;9.026;2023-09-08T04:28:41;12.20;99.90
30150;DHT22;16962;48.646;9.026;2023-09-08T04:31:28;12.30;99.90
30150;DHT22;16962;48.646;9.026;2023-09-08T04:34:25;12.30;99.90
30150;DHT22;16962;48.646;9.026;2023-09-08T04:37:12;12.20;99.90
30150;DHT22;16962;48.646;9.026;2023-09-08T04:40:01;12.10;99.90
30150;DHT22;16962;48.646;9.026;2023-09-08T04:42:48;12.00;99.90
30150;DHT22;16962;48.646;9.026;2023-09-08T04:45:36;12.00;99.90
30150;DHT22;16962;48.646;9.026;2023-09-08T04:48:25;11.90;99.90
30150;DHT22;16962;48.646;9.026;2023-09-08T04:51:17;11.90;99.90
30150;DHT22;16962;48.646;9.026;2023-09-08T04:54:04;12.10;99.90
30150;DHT22;16962;48.646;9.026;2023-09-08T04:57:07;12.10;99.90
30150;DHT22;16962;48.646;9.026;2023-09-08T05:00:09;12.10;99.90
30150;DHT22;16962;48.646;9.026;2023-09-08T05:02:59;12.20;99.90
30150;DHT22;16962;48.646;9.026;2023-09-08T05:05:49;12.20;99.90
30150;DHT22;16962;48.646;9.026;2023-09-08T05:08:40;12.20;99.90
30150;DHT22;16962;48.646;9.026;2023-09-08T05:11:40;12.20;99.90
30150;DHT22;16962;48.646;9.026;2023-09-08T05:14:32;12.20;99.90
30150;DHT22;16962;48.646;9.026;2023-09-08T05:17:23;12.20;99.90
30150;DHT22;16962;48.646;9.026;2023-09-08T05:20:11;12.20;99.90
30150;DHT22;16962;48.646;9.026;2023-09-08T05:23:05;12.20;99.90
30150;DHT22;16962;48.646;9.026;2023-09-08T05:25:55;12.20;99.90
30150;DHT22;16962;48.646;9.026;2023-09-08T05:28:43;12.40;99.90
30150;DHT22;16962;48.646;9.026;2023-09-08T05:31:31;12.50;99.90
30150;DHT22;16962;48.646;9.026;2023-09-08T05:34:19;12.60;99.90
30150;DHT22;16962;48.646;9.026;2023-09-08T05:37:19;12.70;99.90
30150;DHT22;16962;48.646;9.026;2023-09-08T05:40:12;12.70;99.90
30150;DHT22;16962;48.646;9.026;2023-09-08T05:43:02;12.70;99.90
30150;DHT22;16962;48.646;9.026;2023-09-08T05:45:54;12.80;99.90
30150;DHT22;16962;48.646;9.026;2023-09-08T05:48:42;13.00;99.90
30150;DHT22;16962;48.646;9.026;2023-09-08T05:51:30;13.10;99.90
30150;DHT22;16962;48.646;9.026;2023-09-08T05:54:25;13.20;99.90
30150;DHT22;16962;48.646;9.026;2023-09-08T05:57:16;13.40;99.90
30150;DHT22;16962;48.646;9.026;2023-09-08T06:00:09;13.50;99.90
30150;DHT22;16962;48.646;9.026;2023-09-08T06:03:01;13.70;99.90
30150;DHT22;16962;48.646;9.026;2023-09-08T06:06:59;13.80;99.90
30150;DHT22;16962;48.646;9.026;2023-09-08T06:10:17;14.10;99.90
30150;DHT22;16962;48.646;9.026;2023-09-08T06:13:42;14.40;99.90
30150;DHT22;16962;48.646;9.026;2023-09-08T06:17:01;14.60;99.90
30150;DHT22;16962;48.646;9.026;2023-09-08T06:20:08;14.80;99.90
30150;DHT22;16962;48.646;9.026;2023-09-08T06:23:10;14.90;99.90
30150;DHT22;16962;48.646;9.026;2023-09-08T06:26:00;15.00;99.90
30150;DHT22;16962;48.646;9.026;2023-09-08T06:28:54;15.10;99.90
30150;DHT22;16962;48.646;9.026;2023-09-08T06:31:47;15.20;99.90
30150;DHT22;16962;48.646;9.026;2023-09-08T06:34:50;15.30;99.90
30150;DHT22;16962;48.646;9.026;2023-09-08T06:37:41;15.50;99.90
30150;DHT22;16962;48.646;9.026;2023-09-08T06:40:31;15.70;99.90
30150;DHT22;16962;48.646;9.026;2023-09-08T06:43:21;16.00;34.60
30150;DHT22;16962;48.646;9.026;2023-09-08T06:46:12;16.10;1.00
30150;DHT22;16962;48.646;9.026;2023-09-08T06:49:18;16.30;99.90
30150;DHT22;16962;48.646;9.026;2023-09-08T06:52:44;16.70;99.90
30150;DHT22;16962;48.646;9.026;2023-09-08T06:55:35;17.10;1.00
30150;DHT22;16962;48.646;9.026;2023-09-08T06:58:29;17.50;99.90
30150;DHT22;16962;48.646;9.026;2023-09-08T07:01:41;17.70;99.90
30150;DHT22;16962;48.646;9.026;2023-09-08T07:05:02;17.80;99.90
30150;DHT22;16962;48.646;9.026;2023-09-08T07:08:26;18.10;1.00
30150;DHT22;16962;48.646;9.026;2023-09-08T07:11:30;18.30;1.00
30150;DHT22;16962;48.646;9.026;2023-09-08T07:14:26;18.40;99.90
30150;DHT22;16962;48.646;9.026;2023-09-08T07:17:16;18.60;99.90
30150;DHT22;16962;48.646;9.026;2023-09-08T07:20:13;18.60;99.90
30150;DHT22;16962;48.646;9.026;2023-09-08T07:26:33;18.80;1.00
30150;DHT22;16962;48.646;9.026;2023-09-08T07:30:01;19.00;1.00
30150;DHT22;16962;48.646;9.026;2023-09-08T07:33:30;19.10;1.00
30150;DHT22;16962;48.646;9.026;2023-09-08T07:36:51;19.30;99.90
30150;DHT22;16962;48.646;9.026;2023-09-08T07:39:41;19.50;99.90
30150;DHT22;16962;48.646;9.026;2023-09-08T07:42:38;19.60;99.90
30150;DHT22;16962;48.646;9.026;2023-09-08T07:45:58;19.90;35.70
30150;DHT22;16962;48.646;9.026;2023-09-08T07:49:01;20.30;1.00
30150;DHT22;16962;48.646;9.026;2023-09-08T07:51:53;20.70;99.90
30150;DHT22;16962;48.646;9.026;2023-09-08T07:55:44;20.80;1.00
30150;DHT22;16962;48.646;9.026;2023-09-08T07:58:56;21.10;1.00
30150;DHT22;16962;48.646;9.026;2023-09-08T08:02:07;21.40;99.90
30150;DHT22;16962;48.646;9.026;2023-09-08T08:05:33;21.70;99.90
30150;DHT22;16962;48.646;9.026;2023-09-08T08:08:47;21.80;99.90
30150;DHT22;16962;48.646;9.026;2023-09-08T08:11:51;22.10;99.90
30150;DHT22;16962;48.646;9.026;2023-09-08T08:14:41;22.90;1.00
30150;DHT22;16962;48.646;9.026;2023-09-08T08:17:29;23.30;99.90
30150;DHT22;16962;48.646;9.026;2023-09-08T08:20:18;23.80;99.90
30150;DHT22;16962;48.646;9.026;2023-09-08T08:23:53;24.30;99.90
30150;DHT22;16962;48.646;9.026;2023-09-08T08:27:09;24.80;1.00
30150;DHT22;16962;48.646;9.026;2023-09-08T08:30:04;25.50;1.00
30150;DHT22;16962;48.646;9.026;2023-09-08T08:33:14;26.20;1.00
30150;DHT22;16962;48.646;9.026;2023-09-08T08:36:02;26.30;1.00
30150;DHT22;16962;48.646;9.026;2023-09-08T08:38:57;26.30;1.00
30150;DHT22;16962;48.646;9.026;2023-09-08T08:41:52;26.60;1.00
30150;DHT22;16962;48.646;9.026;2023-09-08T08:44:40;27.10;1.00
30150;DHT22;16962;48.646;9.026;2023-09-08T08:47:28;27.90;99.90
30150;DHT22;16962;48.646;9.026;2023-09-08T08:50:27;28.60;99.90
30150;DHT22;16962;48.646;9.026;2023-09-08T08:53:17;28.80;99.90
30150;DHT22;16962;48.646;9.026;2023-09-08T08:56:09;28.80;99.90
30150;DHT22;16962;48.646;9.026;2023-09-08T08:59:06;28.50;99.90
30150;DHT22;16962;48.646;9.026;2023-09-08T09:02:06;29.20;99.90
30150;DHT22;16962;48.646;9.026;2023-09-08T09:04:56;30.10;99.90
30150;DHT22;16962;48.646;9.026;2023-09-08T09:07:48;29.90;99.90
30150;DHT22;16962;48.646;9.026;2023-09-08T09:11:02;29.10;99.90
30150;DHT22;16962;48.646;9.026;2023-09-08T09:13:49;29.50;99.90
30150;DHT22;16962;48.646;9.026;2023-09-08T09:16:59;29.80;99.90
30150;DHT22;16962;48.646;9.026;2023-09-08T09:20:13;30.30;99.90
30150;DHT22;16962;48.646;9.026;2023-09-08T09:23:06;30.40;99.90
30150;DHT22;16962;48.646;9.026;2023-09-08T09:26:05;30.70;99.90
30150;DHT22;16962;48.646;9.026;2023-09-08T09:29:17;30.90;99.90
30150;DHT22;16962;48.646;9.026;2023-09-08T09:32:16;30.60;99.90
30150;DHT22;16962;48.646;9.026;2023-09-08T09:35:20;30.70;99.90
30150;DHT22;16962;48.646;9.026;2023-09-08T09:38:08;30.40;99.90
30150;DHT22;16962;48.646;9.026;2023-09-08T09:40:58;30.80;99.90
30150;DHT22;16962;48.646;9.026;2023-09-08T09:43:45;31.70;99.90
30150;DHT22;16962;48.646;9.026;2023-09-08T09:46:33;31.80;99.90
30150;DHT22;16962;48.646;9.026;2023-09-08T09:49:21;33.10;99.90
30150;DHT22;16962;48.646;9.026;2023-09-08T09:52:09;34.90;99.90
30150;DHT22;16962;48.646;9.026;2023-09-08T09:55:02;35.00;99.90
30150;DHT22;16962;48.646;9.026;2023-09-08T09:57:53;34.70;99.90
30150;DHT22;16962;48.646;9.026;2023-09-08T10:00:45;33.80;99.90
30150;DHT22;16962;48.646;9.026;2023-09-08T10:03:36;33.40;99.90
30150;DHT22;16962;48.646;9.026;2023-09-08T10:06:26;33.90;99.90
30150;DHT22;16962;48.646;9.026;2023-09-08T10:09:13;34.50;99.90
30150;DHT22;16962;48.646;9.026;2023-09-08T10:12:13;35.20;99.90
30150;DHT22;16962;48.646;9.026;2023-09-08T10:15:05;33.60;99.90
30150;DHT22;16962;48.646;9.026;2023-09-08T10:17:55;34.00;99.90
30150;DHT22;16962;48.646;9.026;2023-09-08T10:20:45;34.20;99.90
30150;DHT22;16962;48.646;9.026;2023-09-08T10:23:40;34.70;99.90
30150;DHT22;16962;48.646;9.026;2023-09-08T10:26:31;34.50;99.90
30150;DHT22;16962;48.646;9.026;2023-09-08T10:29:22;33.50;99.90
30150;DHT22;16962;48.646;9.026;2023-09-08T10:32:12;33.30;99.90
30150;DHT22;16962;48.646;9.026;2023-09-08T10:35:01;34.10;99.90
30150;DHT22;16962;48.646;9.026;2023-09-08T10:37:53;34.60;99.90
30150;DHT22;16962;48.646;9.026;2023-09-08T10:44:08;34.80;99.90
30150;DHT22;16962;48.646;9.026;2023-09-08T10:46:58;36.10;99.90
30150;DHT22;16962;48.646;9.026;2023-09-08T10:49:45;36.60;99.90
30150;DHT22;16962;48.646;9.026;2023-09-08T10:52:37;36.60;99.90
30150;DHT22;16962;48.646;9.026;2023-09-08T10:55:41;36.20;99.90
30150;DHT22;16962;48.646;9.026;2023-09-08T10:58:54;36.60;99.90
30150;DHT22;16962;48.646;9.026;2023-09-08T11:01:42;37.30;99.90
30150;DHT22;16962;48.646;9.026;2023-09-08T11:04:30;37.30;93.10
30150;DHT22;16962;48.646;9.026;2023-09-08T11:07:17;37.90;99.00
30150;DHT22;16962;48.646;9.026;2023-09-08T11:10:05;38.60;99.90
30150;DHT22;16962;48.646;9.026;2023-09-08T11:12:54;38.10;72.10
30150;DHT22;16962;48.646;9.026;2023-09-08T11:15:44;37.80;89.10
30150;DHT22;16962;48.646;9.026;2023-09-08T11:18:35;38.40;99.90
30150;DHT22;16962;48.646;9.026;2023-09-08T11:21:25;38.10;73.20
30150;DHT22;16962;48.646;9.026;2023-09-08T11:24:13;38.60;99.90
30150;DHT22;16962;48.646;9.026;2023-09-08T11:27:02;38.50;99.90
30150;DHT22;16962;48.646;9.026;2023-09-08T11:29:52;38.10;75.20
30150;DHT22;16962;48.646;9.026;2023-09-08T11:32:39;37.50;56.80
30150;DHT22;16962;48.646;9.026;2023-09-08T11:35:27;37.90;48.60
30150;DHT22;16962;48.646;9.026;2023-09-08T11:38:14;37.80;27.10
30150;DHT22;16962;48.646;9.026;2023-09-08T11:41:02;38.00;40.00
30150;DHT22;16962;48.646;9.026;2023-09-08T11:43:52;37.00;23.00
30150;DHT22;16962;48.646;9.026;2023-09-08T11:46:42;36.60;17.10
30150;DHT22;16962;48.646;9.026;2023-09-08T11:49:37;36.90;9.50
30150;DHT22;16962;48.646;9.026;2023-09-08T11:52:24;37.30;6.30
30150;DHT22;16962;48.646;9.026;2023-09-08T11:55:12;37.80;23.90
30150;DHT22;16962;48.646;9.026;2023-09-08T11:58:01;38.70;25.50
30150;DHT22;16962;48.646;9.026;2023-09-08T12:00:49;39.30;27.60
30150;DHT22;16962;48.646;9.026;2023-09-08T12:03:55;40.30;23.40
30150;DHT22;16962;48.646;9.026;2023-09-08T12:06:42;40.00;1.00
30150;DHT22;16962;48.646;9.026;2023-09-08T12:09:30;40.60;6.70
30150;DHT22;16962;48.646;9.026;2023-09-08T12:12:17;40.60;2.40
30150;DHT22;16962;48.646;9.026;2023-09-08T12:15:06;40.00;13.70
30150;DHT22;16962;48.646;9.026;2023-09-08T12:17:53;40.10;12.00
30150;DHT22;16962;48.646;9.026;2023-09-08T12:20:41;40.50;23.00
30150;DHT22;16962;48.646;9.026;2023-09-08T12:23:34;40.30;40.60
30150;DHT22;16962;48.646;9.026;2023-09-08T12:26:25;41.30;45.30
30150;DHT22;16962;48.646;9.026;2023-09-08T12:29:15;40.60;72.10
30150;DHT22;16962;48.646;9.026;2023-09-08T12:32:02;40.70;36.70
30150;DHT22;16962;48.646;9.026;2023-09-08T12:34:51;40.80;38.50
30150;DHT22;16962;48.646;9.026;2023-09-08T12:37:39;41.20;26.70
30150;DHT22;16962;48.646;9.026;2023-09-08T12:40:28;40.20;22.30
30150;DHT22;16962;48.646;9.026;2023-09-08T12:43:15;38.90;1.00
30150;DHT22;16962;48.646;9.026;2023-09-08T12:46:17;39.10;25.00
30150;DHT22;16962;48.646;9.026;2023-09-08T12:49:05;39.70;1.00
30150;DHT22;16962;48.646;9.026;2023-09-08T12:51:58;40.00;1.00
30150;DHT22;16962;48.646;9.026;2023-09-08T12:54:45;40.90;1.00
30150;DHT22;16962;48.646;9.026;2023-09-08T12:57:34;41.50;1.00
30150;DHT22;16962;48.646;9.026;2023-09-08T13:00:24;40.90;1.00
30150;DHT22;16962;48.646;9.026;2023-09-08T13:03:20;40.30;17.00
30150;DHT22;16962;48.646;9.026;2023-09-08T13:06:08;40.00;28.10
30150;DHT22;16962;48.646;9.026;2023-09-08T13:08:59;40.00;4.60
30150;DHT22;16962;48.646;9.026;2023-09-08T13:11:47;40.30;1.00
30150;DHT22;16962;48.646;9.026;2023-09-08T13:14:37;40.60;9.90
30150;DHT22;16962;48.646;9.026;2023-09-08T13:17:27;39.20;1.00
30150;DHT22;16962;48.646;9.026;2023-09-08T13:20:18;38.20;1.00
30150;DHT22;16962;48.646;9.026;2023-09-08T13:23:05;38.80;1.00
30150;DHT22;16962;48.646;9.026;2023-09-08T13:25:53;39.60;1.00
30150;DHT22;16962;48.646;9.026;2023-09-08T13:28:42;40.10;1.00
30150;DHT22;16962;48.646;9.026;2023-09-08T13:31:30;39.10;1.00
30150;DHT22;16962;48.646;9.026;2023-09-08T13:34:17;37.80;1.00
30150;DHT22;16962;48.646;9.026;2023-09-08T13:37:05;37.90;1.00
30150;DHT22;16962;48.646;9.026;2023-09-08T13:39:55;38.30;1.00
30150;DHT22;16962;48.646;9.026;2023-09-08T13:42:43;39.20;1.00
30150;DHT22;16962;48.646;9.026;2023-09-08T13:45:36;39.30;1.00
30150;DHT22;16962;48.646;9.026;2023-09-08T13:48:23;38.30;1.00
30150;DHT22;16962;48.646;9.026;2023-09-08T13:51:14;37.40;1.00
30150;DHT22;16962;48.646;9.026;2023-09-08T13:54:08;36.30;1.00
30150;DHT22;16962;48.646;9.026;2023-09-08T13:57:01;35.90;1.00
30150;DHT22;16962;48.646;9.026;2023-09-08T13:59:54;36.60;1.00
30150;DHT22;16962;48.646;9.026;2023-09-08T14:02:44;37.30;1.00
30150;DHT22;16962;48.646;9.026;2023-09-08T14:05:37;36.70;1.00
30150;DHT22;16962;48.646;9.026;2023-09-08T14:08:32;36.80;1.00
30150;DHT22;16962;48.646;9.026;2023-09-08T14:11:25;36.60;1.00
30150;DHT22;16962;48.646;9.026;2023-09-08T14:14:18;37.10;1.00
30150;DHT22;16962;48.646;9.026;2023-09-08T14:17:09;38.50;1.00
30150;DHT22;16962;48.646;9.026;2023-09-08T14:19:56;37.50;1.00
30150;DHT22;16962;48.646;9.026;2023-09-08T14:22:44;38.10;1.00
30150;DHT22;16962;48.646;9.026;2023-09-08T14:25:31;37.30;1.00
30150;DHT22;16962;48.646;9.026;2023-09-08T14:28:24;37.20;1.00
30150;DHT22;16962;48.646;9.026;2023-09-08T14:31:15;38.00;1.00
30150;DHT22;16962;48.646;9.026;2023-09-08T14:34:04;38.80;1.00
30150;DHT22;16962;48.646;9.026;2023-09-08T14:36:52;38.50;1.00
30150;DHT22;16962;48.646;9.026;2023-09-08T14:39:39;38.10;1.00
30150;DHT22;16962;48.646;9.026;2023-09-08T14:42:26;37.60;1.00
30150;DHT22;16962;48.646;9.026;2023-09-08T14:45:18;37.20;1.00
30150;DHT22;16962;48.646;9.026;2023-09-08T14:48:06;36.90;1.00
30150;DHT22;16962;48.646;9.026;2023-09-08T14:50:54;36.90;1.00
30150;DHT22;16962;48.646;9.026;2023-09-08T14:53:43;35.80;1.00
30150;DHT22;16962;48.646;9.026;2023-09-08T14:56:30;35.90;1.00
30150;DHT22;16962;48.646;9.026;2023-09-08T14:59:18;36.50;1.00
30150;DHT22;16962;48.646;9.026;2023-09-08T15:02:07;36.10;1.00
30150;DHT22;16962;48.646;9.026;2023-09-08T15:04:54;35.50;1.00
30150;DHT22;16962;48.646;9.026;2023-09-08T15:07:45;35.10;1.00
30150;DHT22;16962;48.646;9.026;2023-09-08T15:10:34;35.40;1.00
30150;DHT22;16962;48.646;9.026;2023-09-08T15:13:26;35.90;1.00
30150;DHT22;16962;48.646;9.026;2023-09-08T15:16:13;35.40;1.00
30150;DHT22;16962;48.646;9.026;2023-09-08T15:19:01;34.90;1.00
30150;DHT22;16962;48.646;9.026;2023-09-08T15:21:53;34.40;1.00
30150;DHT22;16962;48.646;9.026;2023-09-08T15:24:45;34.10;1.00
30150;DHT22;16962;48.646;9.026;2023-09-08T15:27:33;33.90;1.00
30150;DHT22;16962;48.646;9.026;2023-09-08T15:30:22;33.90;1.00
30150;DHT22;16962;48.646;9.026;2023-09-08T15:33:12;34.10;1.00
30150;DHT22;16962;48.646;9.026;2023-09-08T15:36:00;33.90;1.00
30150;DHT22;16962;48.646;9.026;2023-09-08T15:38:47;33.50;1.00
30150;DHT22;16962;48.646;9.026;2023-09-08T15:41:36;33.20;1.00
30150;DHT22;16962;48.646;9.026;2023-09-08T15:44:25;33.40;1.00
30150;DHT22;16962;48.646;9.026;2023-09-08T15:47:13;33.00;1.00
30150;DHT22;16962;48.646;9.026;2023-09-08T15:50:03;33.00;1.00
30150;DHT22;16962;48.646;9.026;2023-09-08T15:52:55;32.90;1.00
30150;DHT22;16962;48.646;9.026;2023-09-08T15:55:42;32.70;1.00
30150;DHT22;16962;48.646;9.026;2023-09-08T15:58:30;32.20;1.00
30150;DHT22;16962;48.646;9.026;2023-09-08T16:01:17;32.00;1.00
30150;DHT22;16962;48.646;9.026;2023-09-08T16:04:06;32.20;1.00
30150;DHT22;16962;48.646;9.026;2023-09-08T16:06:57;32.00;1.00
30150;DHT22;16962;48.646;9.026;2023-09-08T16:09:45;31.70;1.00
30150;DHT22;16962;48.646;9.026;2023-09-08T16:12:37;31.50;1.00
30150;DHT22;16962;48.646;9.026;2023-09-08T16:15:25;31.60;1.00
30150;DHT22;16962;48.646;9.026;2023-09-08T16:18:15;31.70;1.00
30150;DHT22;16962;48.646;9.026;2023-09-08T16:21:02;31.50;1.00
30150;DHT22;16962;48.646;9.026;2023-09-08T16:23:50;31.30;1.00
30150;DHT22;16962;48.646;9.026;2023-09-08T16:26:38;31.10;1.00
30150;DHT22;16962;48.646;9.026;2023-09-08T16:29:25;30.60;1.00
30150;DHT22;16962;48.646;9.026;2023-09-08T16:32:13;29.70;1.00
30150;DHT22;16962;48.646;9.026;2023-09-08T16:35:00;28.80;1.00
30150;DHT22;16962;48.646;9.026;2023-09-08T16:37:48;28.10;1.00
30150;DHT22;16962;48.646;9.026;2023-09-08T16:40:38;27.60;1.00
30150;DHT22;16962;48.646;9.026;2023-09-08T16:43:26;27.10;1.00
30150;DHT22;16962;48.646;9.026;2023-09-08T16:46:15;26.70;1.00
30150;DHT22;16962;48.646;9.026;2023-09-08T16:49:03;26.50;1.00
30150;DHT22;16962;48.646;9.026;2023-09-08T16:51:52;26.40;1.00
30150;DHT22;16962;48.646;9.026;2023-09-08T16:54:45;26.20;1.00
30150;DHT22;16962;48.646;9.026;2023-09-08T16:57:33;26.00;1.00
30150;DHT22;16962;48.646;9.026;2023-09-08T17:00:20;25.80;1.00
30150;DHT22;16962;48.646;9.026;2023-09-08T17:03:08;25.70;1.00
30150;DHT22;16962;48.646;9.026;2023-09-08T17:05:59;25.60;1.00
30150;DHT22;16962;48.646;9.026;2023-09-08T17:08:46;25.40;1.00
30150;DHT22;16962;48.646;9.026;2023-09-08T17:11:34;25.40;1.00
30150;DHT22;16962;48.646;9.026;2023-09-08T17:14:29;25.20;1.00
30150;DHT22;16962;48.646;9.026;2023-09-08T17:17:19;25.10;3.40
30150;DHT22;16962;48.646;9.026;2023-09-08T17:20:09;25.00;1.00
30150;DHT22;16962;48.646;9.026;2023-09-08T17:22:57;24.80;1.00
30150;DHT22;16962;48.646;9.026;2023-09-08T17:25:44;24.70;1.00
30150;DHT22;16962;48.646;9.026;2023-09-08T17:28:33;24.60;1.00
30150;DHT22;16962;48.646;9.026;2023-09-08T17:31:21;24.40;13.20
30150;DHT22;16962;48.646;9.026;2023-09-08T17:34:19;24.20;8.10
30150;DHT22;16962;48.646;9.026;2023-09-08T17:37:07;24.00;44.80
30150;DHT22;16962;48.646;9.026;2023-09-08T17:39:54;23.70;49.30
30150;DHT22;16962;48.646;9.026;2023-09-08T17:42:44;23.50;85.80
30150;DHT22;16962;48.646;9.026;2023-09-08T17:45:31;23.30;69.10
30150;DHT22;16962;48.646;9.026;2023-09-08T17:48:31;23.10;68.10
30150;DHT22;16962;48.646;9.026;2023-09-08T17:51:45;22.90;96.70
30150;DHT22;16962;48.646;9.026;2023-09-08T17:54:34;22.70;99.90
30150;DHT22;16962;48.646;9.026;2023-09-08T17:57:26;22.50;99.90
30150;DHT22;16962;48.646;9.026;2023-09-08T18:00:16;22.40;99.90
30150;DHT22;16962;48.646;9.026;2023-09-08T18:03:11;22.20;99.90
30150;DHT22;16962;48.646;9.026;2023-09-08T18:06:26;22.10;99.90
30150;DHT22;16962;48.646;9.026;2023-09-08T18:09:36;22.00;99.90
30150;DHT22;16962;48.646;9.026;2023-09-08T18:12:36;21.80;99.90
30150;DHT22;16962;48.646;9.026;2023-09-08T18:15:28;21.80;99.90
30150;DHT22;16962;48.646;9.026;2023-09-08T18:18:24;21.70;99.90
30150;DHT22;16962;48.646;9.026;2023-09-08T18:21:12;21.60;99.90
30150;DHT22;16962;48.646;9.026;2023-09-08T18:24:02;21.60;99.90
30150;DHT22;16962;48.646;9.026;2023-09-08T18:26:56;21.50;99.90